Time;durP1;ratioP1;P1;durP2;ratioP2;P2;SDS_P1;SDS_P2;PMS_P1;PMS_P2;Temp;Humidity;BMP_temperature;BMP_pressure;BME280_temperature;BME280_humidity;BME280_pressure;Samples;Min_cycle;Max_cycle;Signal;HPM_P1;HPM_P2
2023/07/20 00:01:10;;;;;;;5.78;2.47;;;;;;;;;;5155074;27;20198;-62
2023/07/20 00:03:36;;;;;;;2.15;1.73;;;;;;;;;;5156160;27;20210;-62
2023/07/20 00:06:04;;;;;;;3.00;2.10;;;;;;;;;;5158774;27;20193;-62
2023/07/20 00:08:30;;;;;;;2.17;2.08;;;;;;;;;;5157907;27;20194;-62
2023/07/20 00:10:58;;;;;;;5.43;2.08;;;;;;;;;;5155250;27;20208;-62
2023/07/20 00:13:24;;;;;;;1.85;1.65;;;;;;;;;;5154946;27;20513;-62
2023/07/20 00:15:51;;;;;;;3.35;1.98;;;;;;;;;;5158131;27;20201;-62
2023/07/20 00:18:21;;;;;;;3.85;1.95;;;;;;;;;;5158327;27;20209;-62
2023/07/20 00:20:47;;;;;;;3.97;1.90;;;;;;;;;;5155645;27;20269;-62
2023/07/20 00:23:14;;;;;;;3.25;1.77;;;;;;;;;;5154670;27;20390;-62
2023/07/20 00:25:40;;;;;;;3.35;1.42;;;;;;;;;;5156447;27;20212;-62
2023/07/20 00:28:07;;;;;;;4.50;2.38;;;;;;;;;;5158241;27;20209;-62
2023/07/20 00:30:34;;;;;;;3.08;2.17;;;;;;;;;;5157551;27;20501;-62
2023/07/20 00:33:00;;;;;;;4.05;1.73;;;;;;;;;;5154753;27;20432;-62
2023/07/20 00:35:27;;;;;;;2.17;1.70;;;;;;;;;;5154363;27;20233;-62
2023/07/20 00:37:53;;;;;;;3.63;1.63;;;;;;;;;;5157854;27;20228;-62
2023/07/20 00:40:19;;;;;;;2.92;1.90;;;;;;;;;;5158230;27;20206;-62
2023/07/20 00:42:45;;;;;;;2.70;1.92;;;;;;;;;;5155431;27;20225;-62
2023/07/20 00:45:13;;;;;;;3.35;1.90;;;;;;;;;;5154079;27;20201;-62
2023/07/20 00:47:39;;;;;;;3.25;1.77;;;;;;;;;;5162988;27;20277;-62
2023/07/20 00:50:06;;;;;;;4.65;1.50;;;;;;;;;;5154402;27;20194;-62
2023/07/20 00:52:33;;;;;;;3.35;1.60;;;;;;;;;;5154469;27;20205;-62
2023/07/20 00:55:00;;;;;;;7.28;1.90;;;;;;;;;;5158226;27;20208;-62
2023/07/20 00:57:26;;;;;;;3.13;1.63;;;;;;;;;;5157823;27;20204;-62
2023/07/20 00:59:53;;;;;;;1.48;1.48;;;;;;;;;;5153540;27;20427;-63
2023/07/20 01:02:20;;;;;;;2.00;1.80;;;;;;;;;;5153988;27;20564;-63
2023/07/20 01:04:47;;;;;;;3.63;1.30;;;;;;;;;;5156196;27;20198;-63
2023/07/20 01:07:15;;;;;;;2.25;1.80;;;;;;;;;;5157419;27;20182;-63
2023/07/20 01:09:43;;;;;;;2.50;1.88;;;;;;;;;;5156011;27;20216;-63
2023/07/20 01:12:13;;;;;;;1.75;1.65;;;;;;;;;;5154022;27;20514;-63
2023/07/20 01:14:39;;;;;;;2.00;1.63;;;;;;;;;;5162469;27;20592;-63
2023/07/20 01:17:06;;;;;;;1.65;1.45;;;;;;;;;;5153870;27;20478;-63
2023/07/20 01:19:34;;;;;;;1.75;1.65;;;;;;;;;;5153587;27;20214;-63
2023/07/20 01:22:02;;;;;;;1.70;1.60;;;;;;;;;;5157208;27;20194;-63
2023/07/20 01:24:44;;;;;;;1.52;1.50;;;;;;;;;;5156967;27;20246;-63
2023/07/20 01:27:22;;;;;;;2.90;2.17;;;;;;;;;;5146988;27;20222;-63
2023/07/20 01:29:56;;;;;;;1.70;1.60;;;;;;;;;;5152973;27;20194;-63
2023/07/20 01:32:25;;;;;;;1.85;1.75;;;;;;;;;;5153361;27;20206;-63
2023/07/20 01:34:53;;;;;;;1.90;1.75;;;;;;;;;;5152915;27;20386;-63
2023/07/20 01:37:20;;;;;;;1.48;1.48;;;;;;;;;;5153306;27;20525;-63
2023/07/20 01:39:46;;;;;;;2.20;1.73;;;;;;;;;;5155432;27;20453;-61
2023/07/20 01:42:13;;;;;;;3.13;1.75;;;;;;;;;;5157031;27;20198;-63
2023/07/20 01:44:39;;;;;;;3.33;1.88;;;;;;;;;;5155596;27;20208;-63
2023/07/20 01:47:05;;;;;;;1.98;1.70;;;;;;;;;;5153158;27;20202;-63
2023/07/20 01:49:33;;;;;;;1.85;1.75;;;;;;;;;;5153110;27;20194;-63
2023/07/20 01:51:59;;;;;;;5.38;2.30;;;;;;;;;;5144980;27;20194;-63
2023/07/20 01:54:26;;;;;;;7.05;2.30;;;;;;;;;;5152996;27;20243;-63
2023/07/20 01:56:52;;;;;;;3.08;2.53;;;;;;;;;;5155503;27;20198;-63
2023/07/20 01:59:18;;;;;;;2.90;1.83;;;;;;;;;;5156337;27;20213;-63
2023/07/20 02:01:44;;;;;;;2.00;1.85;;;;;;;;;;5154724;27;20208;-63
2023/07/20 02:04:11;;;;;;;2.28;1.83;;;;;;;;;;5149351;27;20200;-63
2023/07/20 02:06:39;;;;;;;2.15;1.58;;;;;;;;;;5155867;27;20220;-63
2023/07/20 02:09:05;;;;;;;1.67;1.55;;;;;;;;;;5152967;27;20190;-63
2023/07/20 02:11:31;;;;;;;1.65;1.55;;;;;;;;;;5152500;27;20198;-63
2023/07/20 02:13:57;;;;;;;2.50;1.73;;;;;;;;;;5155712;27;20498;-64
2023/07/20 02:16:24;;;;;;;1.88;1.77;;;;;;;;;;5156177;27;20197;-63
2023/07/20 02:18:50;;;;;;;1.73;1.63;;;;;;;;;;5153630;27;20218;-63
2023/07/20 02:21:16;;;;;;;2.03;1.60;;;;;;;;;;5152819;27;20390;-63
2023/07/20 02:23:44;;;;;;;4.63;1.45;;;;;;;;;;5152573;27;20209;-63
2023/07/20 02:26:10;;;;;;;1.67;1.58;;;;;;;;;;5152378;27;20201;-63
2023/07/20 02:28:36;;;;;;;3.80;1.88;;;;;;;;;;5152780;27;20544;-63
2023/07/20 02:31:03;;;;;;;3.10;1.90;;;;;;;;;;5156019;27;20197;-63
2023/07/20 02:33:29;;;;;;;3.80;1.80;;;;;;;;;;5155592;27;20197;-63
2023/07/20 02:35:56;;;;;;;2.08;1.88;;;;;;;;;;5153084;27;20457;-63
2023/07/20 02:38:22;;;;;;;1.90;1.80;;;;;;;;;;5152426;27;20530;-63
2023/07/20 02:40:50;;;;;;;3.88;1.70;;;;;;;;;;5154212;27;20194;-64
2023/07/20 02:43:16;;;;;;;2.65;1.83;;;;;;;;;;5155629;27;20254;-63
2023/07/20 02:45:43;;;;;;;2.22;2.17;;;;;;;;;;5154477;27;20209;-63
2023/07/20 02:48:09;;;;;;;2.05;1.95;;;;;;;;;;5151982;27;20195;-63
2023/07/20 02:50:36;;;;;;;1.80;1.70;;;;;;;;;;5151907;27;20198;-63
2023/07/20 02:53:02;;;;;;;2.45;2.00;;;;;;;;;;5143664;27;20229;-63
2023/07/20 02:55:28;;;;;;;2.13;1.90;;;;;;;;;;5151837;27;20202;-63
2023/07/20 02:57:56;;;;;;;1.73;1.70;;;;;;;;;;5154823;27;20198;-63
2023/07/20 03:00:23;;;;;;;3.17;1.98;;;;;;;;;;5155254;27;20217;-63
2023/07/20 03:02:52;;;;;;;1.95;1.85;;;;;;;;;;5153423;27;20201;-63
2023/07/20 03:05:19;;;;;;;2.10;1.80;;;;;;;;;;5151844;27;20225;-63
2023/07/20 03:07:45;;;;;;;2.22;2.13;;;;;;;;;;5152761;27;20205;-63
2023/07/20 03:10:12;;;;;;;2.40;1.85;;;;;;;;;;5155213;27;20201;-63
2023/07/20 03:12:38;;;;;;;2.53;2.08;;;;;;;;;;5154926;27;20243;-63
2023/07/20 03:15:07;;;;;;;2.30;2.17;;;;;;;;;;5151335;27;20200;-63
2023/07/20 03:17:33;;;;;;;2.95;2.25;;;;;;;;;;5151804;27;20514;-63
2023/07/20 03:20:00;;;;;;;2.45;2.28;;;;;;;;;;5154738;27;20276;-63
2023/07/20 03:22:26;;;;;;;2.25;2.15;;;;;;;;;;5155200;27;20527;-63
2023/07/20 03:24:53;;;;;;;3.60;2.35;;;;;;;;;;5159184;27;20208;-63
2023/07/20 03:27:19;;;;;;;2.78;1.98;;;;;;;;;;5158437;27;20218;-63
2023/07/20 03:29:45;;;;;;;3.75;2.25;;;;;;;;;;5159246;27;20193;-63
2023/07/20 03:32:13;;;;;;;3.38;1.80;;;;;;;;;;5162145;27;20404;-63
2023/07/20 03:34:39;;;;;;;4.90;1.73;;;;;;;;;;5161632;27;20197;-63
2023/07/20 03:37:06;;;;;;;2.30;2.20;;;;;;;;;;5158426;27;20212;-63
2023/07/20 03:39:32;;;;;;;2.15;2.05;;;;;;;;;;5158324;27;20420;-63
2023/07/20 03:41:59;;;;;;;2.33;2.10;;;;;;;;;;5161075;27;20198;-63
2023/07/20 03:44:25;;;;;;;2.33;2.13;;;;;;;;;;5161601;27;20201;-63
2023/07/20 03:46:51;;;;;;;4.13;2.00;;;;;;;;;;5160484;27;20204;-63
2023/07/20 03:49:19;;;;;;;2.00;1.80;;;;;;;;;;5158289;27;20442;-63
2023/07/20 03:51:45;;;;;;;5.00;2.15;;;;;;;;;;5158872;27;20198;-63
2023/07/20 03:54:12;;;;;;;2.30;2.20;;;;;;;;;;5161728;27;20229;-63
2023/07/20 03:56:38;;;;;;;3.58;2.10;;;;;;;;;;5161680;27;20201;-63
2023/07/20 03:59:04;;;;;;;3.05;2.08;;;;;;;;;;5157896;27;20549;-63
2023/07/20 04:01:37;;;;;;;2.40;2.28;;;;;;;;;;5158098;27;20208;-63
2023/07/20 04:04:05;;;;;;;2.58;2.38;;;;;;;;;;5161526;27;20194;-63
2023/07/20 04:06:33;;;;;;;5.78;2.08;;;;;;;;;;5161801;27;20197;-63
2023/07/20 04:08:59;;;;;;;2.78;2.22;;;;;;;;;;5158799;27;20194;-63
2023/07/20 04:11:26;;;;;;;3.33;1.85;;;;;;;;;;5157969;27;20241;-63
2023/07/20 04:13:53;;;;;;;2.50;2.40;;;;;;;;;;5159632;27;20202;-63
2023/07/20 04:16:19;;;;;;;3.47;1.88;;;;;;;;;;5161632;27;20197;-64
2023/07/20 04:18:46;;;;;;;2.40;2.20;;;;;;;;;;5160779;27;20227;-64
2023/07/20 04:21:12;;;;;;;2.78;2.13;;;;;;;;;;5158179;27;20367;-64
2023/07/20 04:23:39;;;;;;;1.88;1.77;;;;;;;;;;5157790;27;20220;-64
2023/07/20 04:26:06;;;;;;;2.15;1.98;;;;;;;;;;5161222;27;20200;-63
2023/07/20 04:28:33;;;;;;;2.70;2.30;;;;;;;;;;5161354;27;20570;-64
2023/07/20 04:31:10;;;;;;;2.38;1.73;;;;;;;;;;5158895;27;20273;-63
2023/07/20 04:33:36;;;;;;;2.58;2.38;;;;;;;;;;5158099;27;20198;-64
2023/07/20 04:36:02;;;;;;;2.55;2.17;;;;;;;;;;5156858;27;20365;-64
2023/07/20 04:38:29;;;;;;;2.28;2.17;;;;;;;;;;5158168;27;20534;-64
2023/07/20 04:40:56;;;;;;;3.08;2.78;;;;;;;;;;5156079;27;20221;-64
2023/07/20 04:43:23;;;;;;;2.72;2.17;;;;;;;;;;5154526;27;20510;-64
2023/07/20 04:45:50;;;;;;;2.25;2.05;;;;;;;;;;5155228;27;20270;-64
2023/07/20 04:48:17;;;;;;;3.17;2.28;;;;;;;;;;5157899;27;20201;-64
2023/07/20 04:50:44;;;;;;;2.67;2.20;;;;;;;;;;5157880;27;20193;-63
2023/07/20 04:53:11;;;;;;;6.07;2.28;;;;;;;;;;5154159;27;20216;-64
2023/07/20 04:55:37;;;;;;;2.78;2.30;;;;;;;;;;5154328;27;20198;-64
2023/07/20 04:58:05;;;;;;;4.28;2.40;;;;;;;;;;5156862;27;20206;-64
2023/07/20 05:00:32;;;;;;;2.88;2.67;;;;;;;;;;5157500;27;20213;-64
2023/07/20 05:02:58;;;;;;;2.85;2.20;;;;;;;;;;5155515;27;20524;-64
2023/07/20 05:05:24;;;;;;;2.15;2.13;;;;;;;;;;5153854;27;20202;-64
2023/07/20 05:07:51;;;;;;;2.47;2.33;;;;;;;;;;5155107;27;20210;-64
2023/07/20 05:10:18;;;;;;;2.90;2.45;;;;;;;;;;5157501;27;20192;-64
2023/07/20 05:12:44;;;;;;;2.83;2.30;;;;;;;;;;5157711;27;20264;-64
2023/07/20 05:15:12;;;;;;;2.60;2.10;;;;;;;;;;5153724;27;20195;-64
2023/07/20 05:17:39;;;;;;;2.85;2.53;;;;;;;;;;5153809;27;20370;-64
2023/07/20 05:20:05;;;;;;;2.80;2.42;;;;;;;;;;5156434;27;20262;-64
2023/07/20 05:22:32;;;;;;;2.58;2.47;;;;;;;;;;5157405;27;20505;-64
2023/07/20 05:24:58;;;;;;;3.60;2.30;;;;;;;;;;5155180;27;20200;-64
2023/07/20 05:27:24;;;;;;;3.33;2.20;;;;;;;;;;5153661;27;20225;-64
2023/07/20 05:29:51;;;;;;;2.95;1.83;;;;;;;;;;5154337;27;20195;-64
2023/07/20 05:32:19;;;;;;;2.22;2.13;;;;;;;;;;5157573;27;20192;-64
2023/07/20 05:34:45;;;;;;;2.33;2.10;;;;;;;;;;5156788;27;20397;-64
2023/07/20 05:37:12;;;;;;;7.70;2.80;;;;;;;;;;5145042;27;20201;-64
2023/07/20 05:39:38;;;;;;;2.53;2.33;;;;;;;;;;5133244;27;20215;-60
2023/07/20 05:42:05;;;;;;;3.35;2.30;;;;;;;;;;5143889;27;20220;-59
2023/07/20 05:44:31;;;;;;;5.40;2.67;;;;;;;;;;5151123;27;20213;-60
2023/07/20 05:46:57;;;;;;;7.97;2.47;;;;;;;;;;5143170;27;20210;-57
2023/07/20 05:49:25;;;;;;;5.15;2.65;;;;;;;;;;5151632;27;20268;-59
2023/07/20 05:51:51;;;;;;;5.75;2.88;;;;;;;;;;5151021;27;20205;-57
2023/07/20 05:54:18;;;;;;;5.20;2.42;;;;;;;;;;5137413;27;20377;-58
2023/07/20 05:56:44;;;;;;;2.80;2.22;;;;;;;;;;5138458;27;20467;-59
2023/07/20 05:59:10;;;;;;;6.78;2.42;;;;;;;;;;5142667;27;20213;-58
2023/07/20 06:01:37;;;;;;;1.98;1.85;;;;;;;;;;5145157;27;20214;-57
2023/07/20 06:04:04;;;;;;;4.97;2.17;;;;;;;;;;5147459;27;20210;-58
2023/07/20 06:06:31;;;;;;;5.15;2.22;;;;;;;;;;5149010;27;20254;-58
2023/07/20 06:08:58;;;;;;;3.55;2.45;;;;;;;;;;5146808;27;20361;-58
2023/07/20 06:11:24;;;;;;;4.90;2.40;;;;;;;;;;5145090;27;20510;-58
2023/07/20 06:13:50;;;;;;;5.63;2.35;;;;;;;;;;5145580;27;20210;-58
2023/07/20 06:16:16;;;;;;;4.07;2.20;;;;;;;;;;5148343;27;20213;-58
2023/07/20 06:18:43;;;;;;;3.70;2.03;;;;;;;;;;5140659;27;20420;-58
2023/07/20 06:21:09;;;;;;;5.95;2.30;;;;;;;;;;5141709;27;20218;-59
2023/07/20 06:23:37;;;;;;;7.43;2.33;;;;;;;;;;5136434;27;20214;-58
2023/07/20 06:26:03;;;;;;;2.85;1.83;;;;;;;;;;5137521;27;20206;-57
2023/07/20 06:28:29;;;;;;;4.05;1.65;;;;;;;;;;5142477;27;20226;-56
2023/07/20 06:31:00;;;;;;;3.58;2.15;;;;;;;;;;5137669;27;20510;-56
2023/07/20 06:33:26;;;;;;;1.83;1.73;;;;;;;;;;5143608;27;20210;-58
2023/07/20 06:35:52;;;;;;;4.57;2.33;;;;;;;;;;5144798;27;20217;-58
2023/07/20 06:38:19;;;;;;;2.47;1.80;;;;;;;;;;5142870;27;20213;-57
2023/07/20 06:40:48;;;;;;;3.22;1.67;;;;;;;;;;5143435;27;20225;-58
2023/07/20 06:43:14;;;;;;;4.25;1.98;;;;;;;;;;5139283;27;20203;-56
2023/07/20 06:45:40;;;;;;;2.92;1.75;;;;;;;;;;5146021;27;20281;-58
2023/07/20 06:48:07;;;;;;;2.03;1.80;;;;;;;;;;5144946;27;20573;-58
2023/07/20 06:50:33;;;;;;;1.85;1.70;;;;;;;;;;5147652;27;20205;-58
2023/07/20 06:52:59;;;;;;;4.15;1.98;;;;;;;;;;5144586;27;20237;-57
2023/07/20 06:55:26;;;;;;;4.05;1.63;;;;;;;;;;5141705;27;20262;-58
2023/07/20 06:57:56;;;;;;;3.35;2.08;;;;;;;;;;5144261;27;20217;-58
2023/07/20 07:00:22;;;;;;;1.50;1.38;;;;;;;;;;5139247;27;20289;-58
2023/07/20 07:02:49;;;;;;;1.98;1.70;;;;;;;;;;5147996;27;20216;-57
2023/07/20 07:05:15;;;;;;;2.13;1.48;;;;;;;;;;5145996;27;20544;-58
2023/07/20 07:07:42;;;;;;;3.17;1.70;;;;;;;;;;5146199;27;20232;-58
2023/07/20 07:10:08;;;;;;;3.58;1.50;;;;;;;;;;5143791;27;20210;-58
2023/07/20 07:12:34;;;;;;;4.38;1.67;;;;;;;;;;5143990;27;20245;-58
2023/07/20 07:15:02;;;;;;;2.00;1.50;;;;;;;;;;5139908;27;20553;-57
2023/07/20 07:17:28;;;;;;;4.18;1.55;;;;;;;;;;5149620;27;20226;-58
2023/07/20 07:19:56;;;;;;;4.72;1.80;;;;;;;;;;5138753;27;20225;-58
2023/07/20 07:22:22;;;;;;;5.10;1.80;;;;;;;;;;5141661;27;20213;-56
2023/07/20 07:24:48;;;;;;;5.03;1.67;;;;;;;;;;5137225;27;20210;-55
2023/07/20 07:27:16;;;;;;;2.90;1.50;;;;;;;;;;5141219;27;20244;-57
2023/07/20 07:29:43;;;;;;;2.58;1.73;;;;;;;;;;5145629;27;20247;-57
2023/07/20 07:32:11;;;;;;;3.92;2.00;;;;;;;;;;5148341;27;20330;-57
2023/07/20 07:34:38;;;;;;;5.13;1.65;;;;;;;;;;5142635;27;20225;-57
2023/07/20 07:37:05;;;;;;;1.88;1.75;;;;;;;;;;5146913;27;20217;-57
2023/07/20 07:39:31;;;;;;;3.20;1.98;;;;;;;;;;5136808;27;20560;-57
2023/07/20 07:41:57;;;;;;;4.00;2.00;;;;;;;;;;5142407;27;20207;-57
2023/07/20 07:44:24;;;;;;;5.07;1.60;;;;;;;;;;5144937;27;20210;-57
2023/07/20 07:46:50;;;;;;;4.53;1.90;;;;;;;;;;5136928;27;20212;-57
2023/07/20 07:49:19;;;;;;;3.83;1.88;;;;;;;;;;5143993;27;20564;-56
2023/07/20 07:51:46;;;;;;;6.30;2.00;;;;;;;;;;5149057;27;20465;-59
2023/07/20 07:54:12;;;;;;;3.33;1.50;;;;;;;;;;5142996;27;20210;-59
2023/07/20 07:56:38;;;;;;;1.33;1.33;;;;;;;;;;5144293;27;20225;-59
2023/07/20 07:59:05;;;;;;;1.70;1.60;;;;;;;;;;5146458;27;20217;-58
2023/07/20 08:01:31;;;;;;;4.82;1.70;;;;;;;;;;5145357;27;20226;-58
2023/07/20 08:03:57;;;;;;;5.00;1.58;;;;;;;;;;5145612;27;20211;-58
2023/07/20 08:06:25;;;;;;;7.70;2.13;;;;;;;;;;5142772;27;20238;-59
2023/07/20 08:08:51;;;;;;;3.35;1.80;;;;;;;;;;5139602;27;20232;-57
2023/07/20 08:11:20;;;;;;;2.10;2.00;;;;;;;;;;5143927;27;20202;-56
2023/07/20 08:13:46;;;;;;;4.63;2.13;;;;;;;;;;5143743;27;20210;-58
2023/07/20 08:16:13;;;;;;;2.05;1.85;;;;;;;;;;5143927;27;20211;-58
2023/07/20 08:18:40;;;;;;;4.55;1.52;;;;;;;;;;5143993;27;20216;-59
2023/07/20 08:21:06;;;;;;;6.65;1.73;;;;;;;;;;5144008;27;20403;-57
2023/07/20 08:23:34;;;;;;;7.10;2.05;;;;;;;;;;5143262;27;20225;-57
2023/07/20 08:26:01;;;;;;;6.97;2.20;;;;;;;;;;5141771;27;20217;-57
2023/07/20 08:28:29;;;;;;;4.68;2.00;;;;;;;;;;5143317;27;20410;-58
2023/07/20 08:30:55;;;;;;;1.95;1.83;;;;;;;;;;5144111;27;20229;-58
2023/07/20 08:33:21;;;;;;;1.65;1.60;;;;;;;;;;5135512;27;20210;-59
2023/07/20 08:35:48;;;;;;;4.80;1.98;;;;;;;;;;5143339;27;20210;-58
2023/07/20 08:38:15;;;;;;;5.40;1.88;;;;;;;;;;5142967;27;20210;-59
2023/07/20 08:40:43;;;;;;;2.38;1.88;;;;;;;;;;5143261;27;20345;-58
2023/07/20 08:43:10;;;;;;;4.95;2.00;;;;;;;;;;5143551;27;20277;-59
2023/07/20 08:45:38;;;;;;;5.40;1.92;;;;;;;;;;5143151;27;20217;-58
2023/07/20 08:48:06;;;;;;;2.45;1.85;;;;;;;;;;5143367;27;20210;-59
2023/07/20 08:50:32;;;;;;;3.80;1.90;;;;;;;;;;5143318;27;20206;-59
2023/07/20 08:52:59;;;;;;;6.82;1.70;;;;;;;;;;5142433;27;20211;-55
2023/07/20 08:55:26;;;;;;;1.98;1.33;;;;;;;;;;5143057;27;20210;-56
2023/07/20 08:57:54;;;;;;;3.75;1.67;;;;;;;;;;5136084;27;20217;-56
2023/07/20 09:00:21;;;;;;;2.00;1.63;;;;;;;;;;5134593;27;20564;-57
2023/07/20 09:02:49;;;;;;;1.60;1.40;;;;;;;;;;5134961;27;20210;-58
2023/07/20 09:05:16;;;;;;;2.85;1.65;;;;;;;;;;5142718;27;20210;-57
2023/07/20 09:07:42;;;;;;;2.72;1.58;;;;;;;;;;5139880;27;20210;-58
2023/07/20 09:10:10;;;;;;;4.07;2.08;;;;;;;;;;5138663;27;20206;-58
2023/07/20 09:12:37;;;;;;;2.90;1.33;;;;;;;;;;5137094;27;20206;-58
2023/07/20 09:15:05;;;;;;;1.50;1.40;;;;;;;;;;5142158;27;20206;-57
2023/07/20 09:17:32;;;;;;;1.38;1.25;;;;;;;;;;5134443;27;20236;-56
2023/07/20 09:19:58;;;;;;;1.70;1.60;;;;;;;;;;5128149;27;20278;-58
2023/07/20 09:22:30;;;;;;;4.10;1.65;;;;;;;;;;5130185;27;20576;-57
2023/07/20 09:24:56;;;;;;;7.72;1.65;;;;;;;;;;5131076;27;20206;-57
2023/07/20 09:27:22;;;;;;;5.70;1.92;;;;;;;;;;5133753;27;20230;-59
2023/07/20 09:29:50;;;;;;;5.78;1.60;;;;;;;;;;5137288;27;20214;-59
2023/07/20 09:32:20;;;;;;;3.38;1.58;;;;;;;;;;5139798;27;20448;-59
2023/07/20 09:34:46;;;;;;;2.58;1.63;;;;;;;;;;5131907;27;20214;-58
2023/07/20 09:37:13;;;;;;;2.47;1.63;;;;;;;;;;5132285;27;20206;-56
2023/07/20 09:39:43;;;;;;;2.35;1.65;;;;;;;;;;5140550;27;20377;-58
2023/07/20 09:42:09;;;;;;;5.40;1.65;;;;;;;;;;5125420;27;20226;-58
2023/07/20 09:44:35;;;;;;;2.65;1.45;;;;;;;;;;5137852;27;20212;-57
2023/07/20 09:47:04;;;;;;;1.95;1.63;;;;;;;;;;5140058;27;20212;-59
2023/07/20 09:49:31;;;;;;;2.83;1.50;;;;;;;;;;5134322;27;20205;-58
2023/07/20 09:51:58;;;;;;;1.83;1.42;;;;;;;;;;5138513;27;20202;-58
2023/07/20 09:54:25;;;;;;;4.50;1.60;;;;;;;;;;5135087;27;20236;-57
2023/07/20 09:56:52;;;;;;;1.80;1.70;;;;;;;;;;5136718;27;20506;-57
2023/07/20 09:59:18;;;;;;;2.22;1.75;;;;;;;;;;5135143;27;20214;-56
2023/07/20 10:01:45;;;;;;;1.52;1.42;;;;;;;;;;5135207;27;20221;-58
2023/07/20 10:04:16;;;;;;;2.15;1.42;;;;;;;;;;5135979;27;20393;-58
2023/07/20 10:06:46;;;;;;;3.85;2.00;;;;;;;;;;5138348;27;20379;-58
2023/07/20 10:09:14;;;;;;;3.35;1.80;;;;;;;;;;5137684;27;20517;-58
2023/07/20 10:11:42;;;;;;;1.90;1.58;;;;;;;;;;5139329;27;20245;-58
2023/07/20 10:14:11;;;;;;;2.80;1.65;;;;;;;;;;5140094;27;20206;-58
2023/07/20 10:16:42;;;;;;;3.90;1.70;;;;;;;;;;5132027;27;20367;-57
2023/07/20 10:19:12;;;;;;;3.78;1.65;;;;;;;;;;5133143;27;20527;-57
2023/07/20 10:21:41;;;;;;;3.90;1.70;;;;;;;;;;5139808;27;20224;-56
2023/07/20 10:24:20;;;;;;;2.42;1.58;;;;;;;;;;5136675;27;20205;-58
2023/07/20 10:26:53;;;;;;;2.80;1.70;;;;;;;;;;5139956;27;20251;-60
2023/07/20 10:29:27;;;;;;;3.33;1.50;;;;;;;;;;5139769;27;20241;-58
2023/07/20 10:32:03;;;;;;;1.90;1.70;;;;;;;;;;5137547;27;20206;-59
2023/07/20 10:34:36;;;;;;;1.33;1.23;;;;;;;;;;5136886;27;20205;-59
2023/07/20 10:37:03;;;;;;;1.75;1.15;;;;;;;;;;5139485;27;20206;-58
2023/07/20 10:39:32;;;;;;;5.80;1.45;;;;;;;;;;5131432;27;20246;-58
2023/07/20 10:42:02;;;;;;;1.35;1.20;;;;;;;;;;5132684;27;20230;-58
2023/07/20 10:44:29;;;;;;;3.75;1.50;;;;;;;;;;5127757;27;20207;-58
2023/07/20 10:47:00;;;;;;;1.35;1.30;;;;;;;;;;5134954;27;20221;-56
2023/07/20 10:49:27;;;;;;;1.88;1.35;;;;;;;;;;5134957;27;20210;-56
2023/07/20 10:51:57;;;;;;;2.53;1.30;;;;;;;;;;5140349;27;20220;-57
2023/07/20 10:54:38;;;;;;;3.60;0.98;;;;;;;;;;5138728;27;20209;-57
2023/07/20 10:57:19;;;;;;;1.10;1.05;;;;;;;;;;5122477;27;20206;-57
2023/07/20 10:59:47;;;;;;;3.22;1.60;;;;;;;;;;5129859;27;20541;-57
2023/07/20 11:02:18;;;;;;;3.90;1.45;;;;;;;;;;5137408;27;20252;-56
2023/07/20 11:04:45;;;;;;;3.60;1.40;;;;;;;;;;5139484;27;20281;-56
2023/07/20 11:07:11;;;;;;;2.53;1.20;;;;;;;;;;5135396;27;20213;-57
2023/07/20 11:09:38;;;;;;;2.50;1.85;;;;;;;;;;5138287;27;20571;-57
2023/07/20 11:12:11;;;;;;;1.42;1.33;;;;;;;;;;5139632;27;20209;-58
2023/07/20 11:14:41;;;;;;;2.00;1.10;;;;;;;;;;5127331;27;20293;-58
2023/07/20 11:17:13;;;;;;;1.27;1.20;;;;;;;;;;5137419;27;20216;-59
2023/07/20 11:19:39;;;;;;;3.50;1.38;;;;;;;;;;5137923;27;20222;-58
2023/07/20 11:22:07;;;;;;;1.25;1.10;;;;;;;;;;5145932;27;20219;-59
2023/07/20 11:24:33;;;;;;;2.60;1.00;;;;;;;;;;5132796;27;20533;-59
2023/07/20 11:27:01;;;;;;;2.50;1.17;;;;;;;;;;5138716;27;20201;-56
2023/07/20 11:29:27;;;;;;;2.92;1.30;;;;;;;;;;5147879;27;20675;-56
2023/07/20 11:31:53;;;;;;;1.27;1.17;;;;;;;;;;5141045;27;20224;-59
2023/07/20 11:34:22;;;;;;;1.05;1.00;;;;;;;;;;5140275;27;20249;-59
2023/07/20 11:36:49;;;;;;;3.90;1.17;;;;;;;;;;5143193;27;20205;-59
2023/07/20 11:39:15;;;;;;;1.45;1.15;;;;;;;;;;5142409;27;20206;-60
2023/07/20 11:41:45;;;;;;;1.30;1.20;;;;;;;;;;5136557;27;20482;-59
2023/07/20 11:44:13;;;;;;;1.55;1.10;;;;;;;;;;5145313;27;20209;-57
2023/07/20 11:46:39;;;;;;;2.90;1.00;;;;;;;;;;5149414;27;20206;-58
2023/07/20 11:49:06;;;;;;;2.47;1.02;;;;;;;;;;5144411;27;20202;-58
2023/07/20 11:51:35;;;;;;;3.92;1.08;;;;;;;;;;5143009;27;20209;-58
2023/07/20 11:54:02;;;;;;;8.15;1.10;;;;;;;;;;5142476;27;20206;-59
2023/07/20 11:56:28;;;;;;;0.95;0.93;;;;;;;;;;5142931;27;20409;-57
2023/07/20 11:58:55;;;;;;;2.00;1.23;;;;;;;;;;5151505;27;20228;-56
2023/07/20 12:01:22;;;;;;;3.13;1.10;;;;;;;;;;5145180;27;20249;-57
2023/07/20 12:03:48;;;;;;;1.17;1.10;;;;;;;;;;5150756;27;20212;-58
2023/07/20 12:06:15;;;;;;;1.95;0.93;;;;;;;;;;5149147;27;20211;-56
2023/07/20 12:08:44;;;;;;;1.20;0.80;;;;;;;;;;5140307;27;20205;-55
2023/07/20 12:11:10;;;;;;;1.15;0.95;;;;;;;;;;5143379;27;20273;-59
2023/07/20 12:13:37;;;;;;;2.40;0.90;;;;;;;;;;5141684;27;20210;-58
2023/07/20 12:16:07;;;;;;;1.33;0.93;;;;;;;;;;5143520;27;20197;-55
2023/07/20 12:18:35;;;;;;;1.65;1.00;;;;;;;;;;5148576;27;20202;-56
2023/07/20 12:21:02;;;;;;;7.95;1.02;;;;;;;;;;5148790;27;20206;-56
2023/07/20 12:23:35;;;;;;;0.75;0.75;;;;;;;;;;5144017;27;20214;-56
2023/07/20 12:26:03;;;;;;;1.27;1.17;;;;;;;;;;5147019;27;20205;-54
2023/07/20 12:28:29;;;;;;;1.30;1.20;;;;;;;;;;5144008;27;20452;-56
2023/07/20 12:30:57;;;;;;;3.83;1.10;;;;;;;;;;5148721;27;20472;-54
2023/07/20 12:33:23;;;;;;;3.53;1.10;;;;;;;;;;5150472;27;20209;-55
2023/07/20 12:35:49;;;;;;;1.92;1.13;;;;;;;;;;5144285;27;20210;-54
2023/07/20 12:38:16;;;;;;;0.77;0.77;;;;;;;;;;5147245;27;20227;-54
2023/07/20 12:40:42;;;;;;;1.00;1.00;;;;;;;;;;5148167;27;20198;-56
2023/07/20 12:43:10;;;;;;;1.13;1.00;;;;;;;;;;5148006;27;20202;-56
2023/07/20 12:45:36;;;;;;;2.35;1.00;;;;;;;;;;5148352;27;20599;-56
2023/07/20 12:48:03;;;;;;;1.40;1.30;;;;;;;;;;5142320;27;20202;-54
2023/07/20 12:50:29;;;;;;;1.23;0.90;;;;;;;;;;5150747;27;20213;-56
2023/07/20 12:52:56;;;;;;;1.60;0.93;;;;;;;;;;5146002;27;20202;-56
2023/07/20 12:55:22;;;;;;;2.25;1.20;;;;;;;;;;5141958;27;20420;-56
2023/07/20 12:57:48;;;;;;;0.70;0.70;;;;;;;;;;5146226;27;20210;-56
2023/07/20 13:00:17;;;;;;;2.15;1.13;;;;;;;;;;5148181;27;20527;-54
2023/07/20 13:02:43;;;;;;;1.00;1.00;;;;;;;;;;5139491;27;20452;-56
2023/07/20 13:05:10;;;;;;;2.08;0.90;;;;;;;;;;5141866;27;20438;-56
2023/07/20 13:07:37;;;;;;;0.85;0.82;;;;;;;;;;5151391;27;20204;-54
2023/07/20 13:10:04;;;;;;;1.83;1.05;;;;;;;;;;5143129;27;20436;-56
2023/07/20 13:12:31;;;;;;;1.13;0.90;;;;;;;;;;5147239;27;20544;-56
2023/07/20 13:15:00;;;;;;;1.63;1.10;;;;;;;;;;5141596;27;20210;-56
2023/07/20 13:17:28;;;;;;;2.70;1.20;;;;;;;;;;5142379;27;20281;-56
2023/07/20 13:19:55;;;;;;;1.83;1.20;;;;;;;;;;5143268;27;20214;-54
2023/07/20 13:22:22;;;;;;;1.88;1.20;;;;;;;;;;5141154;27;20228;-56
2023/07/20 13:24:50;;;;;;;4.50;1.00;;;;;;;;;;5142610;27;20205;-55
2023/07/20 13:27:16;;;;;;;1.00;0.95;;;;;;;;;;5141184;27;20226;-55
2023/07/20 13:29:43;;;;;;;1.00;1.00;;;;;;;;;;5137364;27;20313;-55
2023/07/20 13:32:10;;;;;;;1.35;1.10;;;;;;;;;;5140431;27;20499;-55
2023/07/20 13:34:37;;;;;;;1.95;0.98;;;;;;;;;;5139000;27;20203;-57
2023/07/20 13:37:04;;;;;;;2.72;0.98;;;;;;;;;;5138899;27;20403;-55
2023/07/20 13:39:30;;;;;;;1.67;1.00;;;;;;;;;;5140226;27;20244;-56
2023/07/20 13:41:56;;;;;;;1.80;1.33;;;;;;;;;;5144092;27;20406;-55
2023/07/20 13:44:23;;;;;;;0.90;0.90;;;;;;;;;;5147776;27;20209;-54
2023/07/20 13:46:49;;;;;;;1.23;1.13;;;;;;;;;;5153439;27;20202;-56
2023/07/20 13:49:15;;;;;;;0.88;0.88;;;;;;;;;;5153537;27;20194;-57
2023/07/20 13:51:43;;;;;;;6.57;0.93;;;;;;;;;;5156918;27;20200;-57
2023/07/20 13:54:09;;;;;;;2.30;1.10;;;;;;;;;;5156653;27;20203;-57
2023/07/20 13:56:36;;;;;;;1.00;0.93;;;;;;;;;;5154280;27;20202;-57
2023/07/20 13:59:02;;;;;;;3.03;1.05;;;;;;;;;;5153156;27;20200;-56
2023/07/20 14:01:30;;;;;;;2.05;1.20;;;;;;;;;;5155092;27;20204;-57
2023/07/20 14:03:56;;;;;;;3.17;1.20;;;;;;;;;;5156624;27;20213;-56
2023/07/20 14:06:22;;;;;;;2.83;1.10;;;;;;;;;;5155673;27;20201;-56
2023/07/20 14:08:50;;;;;;;3.10;1.05;;;;;;;;;;5152799;27;20193;-56
2023/07/20 14:11:16;;;;;;;0.85;0.85;;;;;;;;;;5152854;27;20204;-56
2023/07/20 14:13:43;;;;;;;3.22;1.00;;;;;;;;;;5156230;27;20196;-57
2023/07/20 14:16:09;;;;;;;2.72;0.98;;;;;;;;;;5156615;27;20203;-58
2023/07/20 14:18:35;;;;;;;1.80;0.85;;;;;;;;;;5153759;27;20197;-58
2023/07/20 14:21:03;;;;;;;1.95;1.00;;;;;;;;;;5152802;27;20218;-57
2023/07/20 14:23:29;;;;;;;1.33;0.90;;;;;;;;;;5154153;27;20485;-57
2023/07/20 14:25:57;;;;;;;1.20;1.15;;;;;;;;;;5156266;27;20468;-57
2023/07/20 14:28:23;;;;;;;1.00;1.00;;;;;;;;;;5155041;27;20226;-58
2023/07/20 14:30:49;;;;;;;1.52;0.82;;;;;;;;;;5152895;27;20208;-57
2023/07/20 14:33:16;;;;;;;4.97;1.30;;;;;;;;;;5152688;27;20205;-57
2023/07/20 14:35:42;;;;;;;1.38;0.98;;;;;;;;;;5155913;27;20189;-57
2023/07/20 14:38:08;;;;;;;0.90;0.90;;;;;;;;;;5156737;27;20189;-57
2023/07/20 14:40:36;;;;;;;2.58;1.13;;;;;;;;;;5153130;27;20204;-57
2023/07/20 14:43:03;;;;;;;2.78;1.40;;;;;;;;;;5152616;27;20214;-57